Time;durP1;ratioP1;P1;durP2;ratioP2;P2;SDS_P1;SDS_P2;PMS_P1;PMS_P2;Temp;Humidity;BMP_temperature;BMP_pressure;BME280_temperature;BME280_humidity;BME280_pressure;Samples;Min_cycle;Max_cycle;Signal;HPM_P1;HPM_P2
2023/04/24 00:00:25;;;;;;;9.80;7.82;;;11.60;99.90;;;;;;5074400;28;20040;-67
2023/04/24 00:02:51;;;;;;;9.93;6.80;;;11.70;99.90;;;;;;5074374;28;20043;-67
2023/04/24 00:05:17;;;;;;;7.60;6.40;;;11.70;99.90;;;;;;5074272;28;20035;-67
2023/04/24 00:07:44;;;;;;;7.32;5.53;;;11.70;99.90;;;;;;5074063;28;20032;-67
2023/04/24 00:10:10;;;;;;;4.97;3.97;;;11.70;99.90;;;;;;5074169;28;20492;-67
2023/04/24 00:12:37;;;;;;;4.50;3.45;;;11.70;99.90;;;;;;5074389;28;20380;-67
2023/04/24 00:15:03;;;;;;;3.63;3.20;;;11.70;99.90;;;;;;5074161;28;20128;-67
2023/04/24 00:17:28;;;;;;;3.63;2.60;;;11.60;99.90;;;;;;5074019;28;20105;-67
2023/04/24 00:20:00;;;;;;;3.10;2.13;;;11.60;99.90;;;;;;5074032;28;20044;-67
2023/04/24 00:22:30;;;;;;;2.45;2.10;;;11.60;99.90;;;;;;5073910;28;20119;-66
2023/04/24 00:24:56;;;;;;;2.20;1.60;;;11.60;99.90;;;;;;5074066;28;20116;-67
2023/04/24 00:27:21;;;;;;;2.00;1.35;;;11.50;99.90;;;;;;5073967;28;20119;-67
2023/04/24 00:29:47;;;;;;;1.48;1.20;;;11.50;99.90;;;;;;5073831;28;20037;-67
2023/04/24 00:32:13;;;;;;;1.70;1.00;;;11.50;99.90;;;;;;5073845;28;20041;-67
2023/04/24 00:34:38;;;;;;;1.33;1.23;;;11.50;99.90;;;;;;5073726;28;20037;-67
2023/04/24 00:37:04;;;;;;;1.00;0.80;;;11.40;99.90;;;;;;5073535;28;20127;-67
2023/04/24 00:39:29;;;;;;;1.00;0.90;;;11.50;99.90;;;;;;5073642;28;20045;-67
2023/04/24 00:41:56;;;;;;;1.48;0.60;;;11.40;99.90;;;;;;5073597;28;20396;-67
2023/04/24 00:44:22;;;;;;;1.20;0.70;;;11.40;99.90;;;;;;5073711;28;20115;-67
2023/04/24 00:46:51;;;;;;;0.90;0.70;;;11.30;99.90;;;;;;5073341;28;20087;-67
2023/04/24 00:49:18;;;;;;;1.08;0.68;;;11.30;99.90;;;;;;5073248;28;20068;-67
2023/04/24 00:51:45;;;;;;;0.95;0.73;;;11.30;99.90;;;;;;5072857;28;20133;-67
2023/04/24 00:54:11;;;;;;;1.30;0.70;;;11.20;99.90;;;;;;5073462;28;20107;-67
2023/04/24 00:56:37;;;;;;;1.10;0.93;;;11.10;99.90;;;;;;5073075;28;20040;-67
2023/04/24 00:59:04;;;;;;;1.05;0.80;;;11.10;99.90;;;;;;5073320;28;20520;-67
2023/04/24 01:01:30;;;;;;;1.75;1.17;;;11.00;99.90;;;;;;5073143;28;20555;-67
2023/04/24 01:03:57;;;;;;;6.85;1.42;;;11.00;99.90;;;;;;5073143;28;20075;-67
2023/04/24 01:06:23;;;;;;;2.30;1.00;;;11.00;99.90;;;;;;5073142;28;20089;-67
2023/04/24 01:08:49;;;;;;;1.67;1.17;;;11.10;99.90;;;;;;5071857;28;20411;-67
2023/04/24 01:11:15;;;;;;;1.10;0.90;;;11.00;99.90;;;;;;5073056;28;20073;-67
2023/04/24 01:13:40;;;;;;;1.88;1.02;;;11.00;99.90;;;;;;5073048;28;20033;-67
2023/04/24 01:16:06;;;;;;;1.85;1.45;;;11.00;99.90;;;;;;5072755;28;20036;-67
2023/04/24 01:18:32;;;;;;;2.75;1.08;;;11.00;99.90;;;;;;5072747;28;20040;-67
2023/04/24 01:20:59;;;;;;;1.50;1.15;;;11.00;99.90;;;;;;5072654;28;20037;-67
2023/04/24 01:23:25;;;;;;;1.38;1.13;;;11.00;99.90;;;;;;5072717;28;20492;-67
2023/04/24 01:25:51;;;;;;;2.42;1.27;;;11.00;99.90;;;;;;5072681;28;20047;-67
2023/04/24 01:28:17;;;;;;;1.30;1.20;;;11.00;99.90;;;;;;5072730;28;20029;-67
2023/04/24 01:30:43;;;;;;;1.65;1.55;;;11.00;99.90;;;;;;5072598;28;20471;-67
2023/04/24 01:33:10;;;;;;;1.48;1.30;;;11.00;99.90;;;;;;5072503;28;20094;-67
2023/04/24 01:35:37;;;;;;;1.48;1.27;;;11.00;99.90;;;;;;5072650;28;20064;-67
2023/04/24 01:38:02;;;;;;;1.50;1.10;;;11.00;99.90;;;;;;5072595;28;20056;-67
2023/04/24 01:40:28;;;;;;;2.60;1.30;;;11.00;99.90;;;;;;5072364;28;20032;-67
2023/04/24 01:42:54;;;;;;;1.52;1.38;;;11.10;99.90;;;;;;5072485;28;20040;-67
2023/04/24 01:45:19;;;;;;;2.03;1.50;;;11.10;99.90;;;;;;5072305;28;20040;-67
2023/04/24 01:47:46;;;;;;;2.10;1.42;;;11.10;99.90;;;;;;5072117;28;20037;-67
2023/04/24 01:50:12;;;;;;;2.00;1.80;;;11.00;99.90;;;;;;5072471;28;20114;-67
2023/04/24 01:52:38;;;;;;;2.22;2.03;;;11.00;99.90;;;;;;5072470;28;20074;-69
2023/04/24 01:55:04;;;;;;;2.10;1.88;;;11.00;99.90;;;;;;5072187;28;20040;-67
2023/04/24 01:57:33;;;;;;;2.15;1.95;;;11.00;99.90;;;;;;5071908;28;20424;-67
2023/04/24 01:59:59;;;;;;;2.60;2.40;;;11.00;99.90;;;;;;5071863;28;20079;-67
2023/04/24 02:02:27;;;;;;;2.63;2.42;;;11.00;99.90;;;;;;5071666;28;20076;-67
2023/04/24 02:04:54;;;;;;;2.80;2.45;;;11.00;99.90;;;;;;5071506;28;20037;-67
2023/04/24 02:07:19;;;;;;;5.22;2.97;;;11.10;99.90;;;;;;5072047;28;20044;-67
2023/04/24 02:09:45;;;;;;;3.20;2.90;;;11.00;99.90;;;;;;5071775;28;20032;-67
2023/04/24 02:12:11;;;;;;;3.67;2.75;;;11.00;99.90;;;;;;5071989;28;20450;-67
2023/04/24 02:14:36;;;;;;;3.90;3.50;;;11.00;99.90;;;;;;5071759;28;20041;-67
2023/04/24 02:17:02;;;;;;;3.28;2.97;;;11.00;99.90;;;;;;5071706;28;20407;-67
2023/04/24 02:19:28;;;;;;;3.42;3.13;;;11.00;99.90;;;;;;5071823;28;20514;-67
2023/04/24 02:21:53;;;;;;;4.75;3.70;;;11.00;99.90;;;;;;5071884;28;20563;-67
2023/04/24 02:24:19;;;;;;;4.60;3.72;;;11.00;99.90;;;;;;5071687;28;20072;-67
2023/04/24 02:26:44;;;;;;;6.13;4.18;;;11.00;99.90;;;;;;5071594;28;20036;-67
2023/04/24 02:29:10;;;;;;;5.05;4.55;;;11.00;99.90;;;;;;5071473;28;20040;-67
2023/04/24 02:31:36;;;;;;;4.63;4.13;;;10.90;99.90;;;;;;5070354;28;20043;-67
2023/04/24 02:34:01;;;;;;;5.70;5.15;;;11.00;99.90;;;;;;5070458;28;20098;-67
2023/04/24 02:36:27;;;;;;;6.65;6.03;;;11.00;99.90;;;;;;5071318;28;20045;-67
2023/04/24 02:38:52;;;;;;;6.75;6.05;;;11.00;99.90;;;;;;5071693;28;20400;-67
2023/04/24 02:41:18;;;;;;;7.75;6.05;;;10.90;99.90;;;;;;5071214;28;20123;-67
2023/04/24 02:43:43;;;;;;;7.85;6.65;;;10.90;99.90;;;;;;5071298;28;20083;-67
2023/04/24 02:46:09;;;;;;;6.50;5.68;;;10.90;99.90;;;;;;5071218;28;20044;-67
2023/04/24 02:48:34;;;;;;;7.30;6.55;;;10.90;99.90;;;;;;5071781;28;20480;-67
2023/04/24 02:51:00;;;;;;;6.78;6.07;;;10.90;99.90;;;;;;5071346;28;20036;-67
2023/04/24 02:53:25;;;;;;;7.97;7.18;;;10.90;99.90;;;;;;5070228;28;20036;-67
2023/04/24 02:55:51;;;;;;;9.13;6.85;;;10.90;99.90;;;;;;5071293;28;20044;-67
2023/04/24 02:58:19;;;;;;;7.85;6.88;;;10.90;99.90;;;;;;5071449;28;20045;-67
2023/04/24 03:00:45;;;;;;;7.50;6.60;;;10.90;99.90;;;;;;5070803;28;20072;-67
2023/04/24 03:03:11;;;;;;;7.68;6.88;;;10.90;99.90;;;;;;5071003;28;20118;-67
2023/04/24 03:05:36;;;;;;;8.40;6.63;;;10.90;99.90;;;;;;5070863;28;20437;-67
2023/04/24 03:08:02;;;;;;;6.65;5.90;;;10.90;99.90;;;;;;5071273;28;20033;-67
2023/04/24 03:10:27;;;;;;;6.63;5.93;;;10.90;99.90;;;;;;5071012;28;20036;-67
2023/04/24 03:12:54;;;;;;;7.45;6.60;;;10.90;99.90;;;;;;5071229;28;20040;-67
2023/04/24 03:15:20;;;;;;;7.15;6.45;;;10.90;99.90;;;;;;5073030;28;20056;-67
2023/04/24 03:17:45;;;;;;;8.48;7.68;;;10.90;99.90;;;;;;5075240;28;20067;-67
2023/04/24 03:20:11;;;;;;;7.72;6.93;;;10.90;99.90;;;;;;5074841;28;20044;-67
2023/04/24 03:22:37;;;;;;;8.88;7.97;;;10.90;99.90;;;;;;5075070;28;20044;-67
2023/04/24 03:25:03;;;;;;;9.73;8.73;;;10.90;99.90;;;;;;5075030;28;20036;-67
2023/04/24 03:27:29;;;;;;;9.85;8.95;;;10.90;99.90;;;;;;5074648;28;20471;-67
2023/04/24 03:29:55;;;;;;;9.90;8.90;;;10.90;99.90;;;;;;5074715;28;20083;-67
2023/04/24 03:32:22;;;;;;;10.82;9.75;;;10.80;99.90;;;;;;5075249;28;20093;-67
2023/04/24 03:34:48;;;;;;;10.32;9.32;;;10.80;99.90;;;;;;5075051;28;20483;-67
2023/04/24 03:37:14;;;;;;;10.13;9.20;;;10.80;99.90;;;;;;5074837;28;20044;-67
2023/04/24 03:39:39;;;;;;;9.32;8.25;;;10.80;99.90;;;;;;5074466;28;20428;-67
2023/04/24 03:42:05;;;;;;;8.35;7.55;;;10.80;99.90;;;;;;5074700;28;20047;-67
2023/04/24 03:44:30;;;;;;;10.65;9.55;;;10.80;99.90;;;;;;5074374;28;20044;-67
2023/04/24 03:46:58;;;;;;;8.00;6.95;;;10.80;99.90;;;;;;5074760;28;20036;-67
2023/04/24 03:49:23;;;;;;;9.38;8.38;;;10.80;99.90;;;;;;5074506;28;20102;-67
2023/04/24 03:51:49;;;;;;;7.45;6.50;;;10.70;99.90;;;;;;5074015;28;20036;-67
2023/04/24 03:54:14;;;;;;;7.57;6.88;;;10.80;99.90;;;;;;5074603;28;20520;-67
2023/04/24 03:56:40;;;;;;;8.95;8.05;;;10.80;99.90;;;;;;5074223;28;20044;-67
2023/04/24 03:59:05;;;;;;;9.35;7.78;;;10.80;99.90;;;;;;5074277;28;20550;-67
2023/04/24 04:01:31;;;;;;;8.75;7.43;;;10.70;99.90;;;;;;5074513;28;20051;-67
2023/04/24 04:03:56;;;;;;;8.98;7.50;;;10.70;99.90;;;;;;5074661;28;20484;-67
2023/04/24 04:06:22;;;;;;;8.02;6.65;;;10.70;99.90;;;;;;5074185;28;20036;-67
2023/04/24 04:08:47;;;;;;;8.23;7.30;;;10.70;99.90;;;;;;5074339;28;20112;-67
2023/04/24 04:11:13;;;;;;;6.65;6.05;;;10.70;99.90;;;;;;5073992;28;20038;-66
2023/04/24 04:13:39;;;;;;;7.18;5.50;;;10.60;99.90;;;;;;5074024;28;20040;-67
2023/04/24 04:16:05;;;;;;;6.15;5.55;;;10.60;99.90;;;;;;5074108;28;20032;-67
2023/04/24 04:18:30;;;;;;;6.03;5.50;;;10.60;99.90;;;;;;5074074;28;20041;-67
2023/04/24 04:20:56;;;;;;;6.32;5.72;;;10.70;99.90;;;;;;5073562;28;20044;-67
2023/04/24 04:23:22;;;;;;;6.60;6.00;;;10.70;99.90;;;;;;5073920;28;20401;-67
2023/04/24 04:25:49;;;;;;;6.22;5.40;;;10.60;99.90;;;;;;5072881;28;20039;-67
2023/04/24 04:28:15;;;;;;;6.00;5.40;;;10.60;99.90;;;;;;5073301;28;20052;-67
2023/04/24 04:30:41;;;;;;;5.53;5.03;;;10.60;99.90;;;;;;5073856;28;20041;-67
2023/04/24 04:33:07;;;;;;;8.10;6.05;;;10.60;99.90;;;;;;5073955;28;20514;-67
2023/04/24 04:35:33;;;;;;;7.05;6.10;;;10.60;99.90;;;;;;5073883;28;20048;-67
2023/04/24 04:37:59;;;;;;;7.05;6.35;;;10.60;99.90;;;;;;5073794;28;20037;-67
2023/04/24 04:40:24;;;;;;;7.30;6.57;;;10.60;99.90;;;;;;5073190;28;20036;-67
2023/04/24 04:42:52;;;;;;;9.05;7.13;;;10.60;99.90;;;;;;5073338;28;20404;-67
2023/04/24 04:45:18;;;;;;;7.20;6.50;;;10.60;99.90;;;;;;5073367;28;20037;-67
2023/04/24 04:47:44;;;;;;;9.77;7.88;;;10.60;99.90;;;;;;5073427;28;20569;-67
2023/04/24 04:50:10;;;;;;;6.82;6.13;;;10.60;99.90;;;;;;5073407;28;20408;-67
2023/04/24 04:52:36;;;;;;;5.93;5.32;;;10.60;99.90;;;;;;5073507;28;20040;-67
2023/04/24 04:55:01;;;;;;;7.15;6.45;;;10.60;99.90;;;;;;5073220;28;20097;-67
2023/04/24 04:57:27;;;;;;;6.68;6.00;;;10.50;99.90;;;;;;5072643;28;20040;-67
2023/04/24 04:59:53;;;;;;;6.13;5.53;;;10.60;99.90;;;;;;5073217;28;20388;-67
2023/04/24 05:02:18;;;;;;;6.03;4.95;;;10.50;99.90;;;;;;5073040;28;20483;-67
2023/04/24 05:04:44;;;;;;;6.03;5.28;;;10.50;99.90;;;;;;5072899;28;20485;-67
2023/04/24 05:07:10;;;;;;;4.85;4.35;;;10.50;99.90;;;;;;5072975;28;20036;-67
2023/04/24 05:09:37;;;;;;;4.68;4.18;;;10.60;99.90;;;;;;5072682;28;20120;-67
2023/04/24 05:12:03;;;;;;;4.47;3.38;;;10.60;99.90;;;;;;5072751;28;20511;-68
2023/04/24 05:14:28;;;;;;;4.65;3.55;;;10.50;99.90;;;;;;5072992;28;20133;-67
2023/04/24 05:16:54;;;;;;;4.25;3.30;;;10.50;99.90;;;;;;5072841;28;20481;-67
2023/04/24 05:19:19;;;;;;;4.60;3.65;;;10.50;99.90;;;;;;5072560;28;20527;-67
2023/04/24 05:21:45;;;;;;;3.03;2.25;;;10.50;99.90;;;;;;5072612;28;20048;-67
2023/04/24 05:24:10;;;;;;;2.50;2.30;;;10.50;99.90;;;;;;5072621;28;20035;-67
2023/04/24 05:26:36;;;;;;;2.58;1.90;;;10.50;99.90;;;;;;5072344;28;20385;-67
2023/04/24 05:29:02;;;;;;;3.72;2.20;;;10.50;99.90;;;;;;5072350;28;20043;-68
2023/04/24 05:31:28;;;;;;;1.95;1.58;;;10.50;99.90;;;;;;5072619;28;20063;-67
2023/04/24 05:33:53;;;;;;;1.30;1.20;;;10.50;99.90;;;;;;5072713;28;20528;-67
2023/04/24 05:36:19;;;;;;;1.52;1.42;;;10.40;99.90;;;;;;5072416;28;20036;-67
2023/04/24 05:38:45;;;;;;;1.38;1.17;;;10.40;99.90;;;;;;5054125;28;20050;-67
2023/04/24 05:41:10;;;;;;;1.23;1.05;;;10.40;99.90;;;;;;5071918;28;20033;-67
2023/04/24 05:43:36;;;;;;;1.65;1.55;;;10.40;99.90;;;;;;5072515;28;20036;-67
2023/04/24 05:46:01;;;;;;;2.65;1.15;;;10.40;99.90;;;;;;5072116;28;20592;-67
2023/04/24 05:48:27;;;;;;;3.40;1.20;;;10.40;99.90;;;;;;5072380;28;20032;-67
2023/04/24 05:50:52;;;;;;;1.60;0.95;;;10.40;99.90;;;;;;5071822;28;20132;-67
2023/04/24 05:53:18;;;;;;;1.63;0.90;;;10.40;99.90;;;;;;5072264;28;20169;-66
2023/04/24 05:55:45;;;;;;;2.75;1.48;;;10.40;99.90;;;;;;5071864;28;20677;-70
2023/04/24 05:58:11;;;;;;;1.33;0.93;;;10.30;99.90;;;;;;5054137;28;20043;-69
2023/04/24 06:00:37;;;;;;;3.70;1.20;;;10.30;99.90;;;;;;5071781;28;20041;-70
2023/04/24 06:03:03;;;;;;;2.13;1.80;;;10.30;99.90;;;;;;5052521;28;20389;-70
2023/04/24 06:05:30;;;;;;;1.60;1.42;;;10.30;99.90;;;;;;5053088;28;20041;-70
2023/04/24 06:07:55;;;;;;;3.55;1.70;;;10.30;99.90;;;;;;5054037;28;20037;-69
2023/04/24 06:10:21;;;;;;;1.92;1.67;;;10.30;99.90;;;;;;5071439;28;20046;-69
2023/04/24 06:12:47;;;;;;;1.92;1.25;;;10.30;99.90;;;;;;5072075;28;20040;-69
2023/04/24 06:15:12;;;;;;;2.08;1.88;;;10.20;99.90;;;;;;5071922;28;20040;-69
2023/04/24 06:17:38;;;;;;;1.73;1.38;;;10.30;99.90;;;;;;5071719;28;20047;-69
2023/04/24 06:20:05;;;;;;;2.70;1.52;;;10.30;99.90;;;;;;5071750;28;20048;-69
2023/04/24 06:22:31;;;;;;;1.58;1.20;;;10.30;99.90;;;;;;5053884;28;20498;-69
2023/04/24 06:24:56;;;;;;;2.25;1.50;;;10.40;99.90;;;;;;5071578;28;20112;-69
2023/04/24 06:27:22;;;;;;;1.70;1.45;;;10.40;99.90;;;;;;5071825;28;20481;-69
2023/04/24 06:29:54;;;;;;;4.07;1.30;;;10.40;99.90;;;;;;5071631;28;20032;-69
2023/04/24 06:32:21;;;;;;;3.22;1.80;;;10.40;99.90;;;;;;5053504;28;20056;-69
2023/04/24 06:34:46;;;;;;;2.95;1.50;;;10.40;99.90;;;;;;5053420;28;20049;-69
2023/04/24 06:37:12;;;;;;;3.22;1.70;;;10.40;99.90;;;;;;5071459;28;20044;-69
2023/04/24 06:39:37;;;;;;;3.20;2.05;;;10.50;99.90;;;;;;5071064;28;20055;-69
2023/04/24 06:42:03;;;;;;;2.75;2.08;;;10.40;99.90;;;;;;5071677;28;20133;-68
2023/04/24 06:44:28;;;;;;;6.50;3.75;;;10.40;99.90;;;;;;5053477;28;20040;-69
2023/04/24 06:46:54;;;;;;;5.60;3.88;;;10.40;99.90;;;;;;5071381;28;20040;-69
2023/04/24 06:49:19;;;;;;;8.48;4.47;;;10.40;99.90;;;;;;5072912;28;20037;-69
2023/04/24 06:51:45;;;;;;;8.40;5.45;;;10.40;99.90;;;;;;5078115;28;20103;-69
2023/04/24 06:54:10;;;;;;;10.05;5.40;;;10.40;99.90;;;;;;5077997;28;20047;-70
2023/04/24 06:56:36;;;;;;;9.48;5.93;;;10.50;99.90;;;;;;5078037;28;20059;-69
2023/04/24 06:59:02;;;;;;;9.63;5.85;;;10.50;99.90;;;;;;5060028;28;20028;-69
2023/04/24 07:01:27;;;;;;;9.48;6.43;;;10.50;99.90;;;;;;5077523;28;20043;-69
2023/04/24 07:03:53;;;;;;;10.07;5.93;;;10.50;99.90;;;;;;5077879;28;20044;-69
2023/04/24 07:06:21;;;;;;;9.13;6.13;;;10.50;99.90;;;;;;5077637;28;20598;-69
2023/04/24 07:08:47;;;;;;;9.48;5.70;;;10.40;99.90;;;;;;5077926;28;20090;-69
2023/04/24 07:11:12;;;;;;;8.43;5.75;;;10.40;99.90;;;;;;5059910;28;20082;-69
2023/04/24 07:13:41;;;;;;;9.13;6.13;;;10.40;99.90;;;;;;5077934;28;20037;-69
2023/04/24 07:16:08;;;;;;;8.63;5.60;;;10.40;99.90;;;;;;5077801;28;20072;-69
2023/04/24 07:18:33;;;;;;;9.02;5.35;;;10.40;99.90;;;;;;5077716;28;20048;-69
2023/04/24 07:20:59;;;;;;;7.13;4.57;;;10.40;99.90;;;;;;5059517;28;20037;-70
2023/04/24 07:23:25;;;;;;;5.90;3.78;;;10.50;99.90;;;;;;5060154;28;20123;-69
2023/04/24 07:25:50;;;;;;;4.63;3.63;;;10.40;99.90;;;;;;5077614;28;20384;-69
2023/04/24 07:28:17;;;;;;;3.67;2.20;;;10.40;99.90;;;;;;5077845;28;20028;-69
2023/04/24 07:30:43;;;;;;;4.70;1.60;;;10.40;99.90;;;;;;5077815;28;20119;-69
2023/04/24 07:33:11;;;;;;;2.67;1.40;;;10.40;99.90;;;;;;5077850;28;20068;-69
2023/04/24 07:35:36;;;;;;;5.20;1.30;;;10.40;99.90;;;;;;5077657;28;20036;-69
2023/04/24 07:38:02;;;;;;;2.53;1.85;;;10.50;99.90;;;;;;5077801;28;20089;-69
2023/04/24 07:40:27;;;;;;;4.72;1.80;;;10.50;99.90;;;;;;5059858;28;20127;-69
2023/04/24 07:42:53;;;;;;;3.75;1.85;;;10.40;99.90;;;;;;5077773;28;20040;-70
2023/04/24 07:45:18;;;;;;;3.30;2.15;;;10.50;99.90;;;;;;5077573;28;20040;-70
2023/04/24 07:47:45;;;;;;;5.07;2.35;;;10.50;99.90;;;;;;5077592;28;20085;-69
2023/04/24 07:50:12;;;;;;;6.90;2.30;;;10.50;99.90;;;;;;5059428;28;20089;-68
2023/04/24 07:52:38;;;;;;;2.25;1.85;;;10.40;99.90;;;;;;5077519;28;20032;-68
2023/04/24 07:55:04;;;;;;;3.13;2.30;;;10.30;99.90;;;;;;5077308;28;20059;-69
2023/04/24 07:57:30;;;;;;;5.10;2.50;;;10.30;99.90;;;;;;5077484;28;20032;-68
2023/04/24 07:59:55;;;;;;;7.47;3.00;;;10.30;99.90;;;;;;5059638;28;20498;-70
2023/04/24 08:02:26;;;;;;;7.63;3.63;;;10.30;99.90;;;;;;5074711;28;20446;-69
2023/04/24 08:04:53;;;;;;;6.65;3.40;;;10.20;99.90;;;;;;5056346;28;20045;-69
2023/04/24 08:07:18;;;;;;;7.70;3.63;;;10.20;99.90;;;;;;5074170;28;20040;-69
2023/04/24 08:09:44;;;;;;;6.07;3.85;;;10.20;99.90;;;;;;5074267;28;20044;-69
2023/04/24 08:12:09;;;;;;;8.48;4.07;;;10.20;99.90;;;;;;5056361;28;20044;-69
2023/04/24 08:14:35;;;;;;;7.22;3.20;;;10.20;99.90;;;;;;5056109;28;20037;-69
2023/04/24 08:17:01;;;;;;;5.32;3.80;;;10.20;99.90;;;;;;5056130;28;20048;-68
2023/04/24 08:19:26;;;;;;;7.65;4.28;;;10.10;99.90;;;;;;5074089;28;20040;-69
2023/04/24 08:21:52;;;;;;;6.18;4.03;;;10.10;99.90;;;;;;5074090;28;20082;-69
2023/04/24 08:24:17;;;;;;;8.70;4.97;;;10.00;99.90;;;;;;5074154;28;20408;-69
2023/04/24 08:26:43;;;;;;;8.10;5.32;;;10.00;99.90;;;;;;5055802;28;20041;-69
2023/04/24 08:29:08;;;;;;;11.48;5.38;;;9.90;99.90;;;;;;5056275;28;20378;-68
2023/04/24 08:31:37;;;;;;;11.45;6.65;;;9.90;99.90;;;;;;5067193;28;20423;-69
2023/04/24 08:34:03;;;;;;;12.55;7.78;;;9.90;99.90;;;;;;5072564;28;20033;-69
2023/04/24 08:36:28;;;;;;;14.98;8.85;;;10.00;99.90;;;;;;5073065;28;20044;-69
2023/04/24 08:38:54;;;;;;;17.75;8.88;;;9.90;99.90;;;;;;5072435;28;20492;-69
2023/04/24 08:41:19;;;;;;;19.63;11.20;;;9.90;99.90;;;;;;5072893;28;20084;-69
2023/04/24 08:43:48;;;;;;;21.67;11.80;;;9.90;99.90;;;;;;5072345;28;20047;-69
2023/04/24 08:46:16;;;;;;;24.67;13.18;;;9.90;99.90;;;;;;5073220;28;20074;-69
2023/04/24 08:48:42;;;;;;;26.17;12.60;;;9.80;99.90;;;;;;5073514;28;20036;-69
2023/04/24 08:51:09;;;;;;;23.77;13.40;;;9.90;99.90;;;;;;5072232;28;20111;-69
2023/04/24 08:53:35;;;;;;;20.25;11.82;;;9.80;99.90;;;;;;5073699;28;20044;-70
2023/04/24 08:56:02;;;;;;;22.88;11.05;;;9.80;99.90;;;;;;5073409;28;20063;-70
2023/04/24 08:58:28;;;;;;;26.17;12.55;;;9.80;99.90;;;;;;5072199;28;20450;-69
2023/04/24 09:00:57;;;;;;;18.95;11.02;;;9.80;99.90;;;;;;5072893;28;20040;-69
2023/04/24 09:03:23;;;;;;;21.42;10.55;;;9.70;99.90;;;;;;5071681;28;20074;-70
2023/04/24 09:05:50;;;;;;;17.85;10.18;;;9.70;99.90;;;;;;5073066;28;20028;-70
2023/04/24 09:08:19;;;;;;;23.10;12.43;;;9.70;99.90;;;;;;5071863;28;20037;-70
2023/04/24 09:10:45;;;;;;;19.55;12.30;;;9.80;99.90;;;;;;5071777;28;20045;-71
2023/04/24 09:13:11;;;;;;;22.83;13.43;;;9.70;99.90;;;;;;5072622;28;20043;-71
2023/04/24 09:15:38;;;;;;;24.67;11.88;;;9.70;99.90;;;;;;5071542;28;20033;-70
2023/04/24 09:18:04;;;;;;;20.40;12.30;;;9.60;99.90;;;;;;5072828;28;20089;-70
2023/04/24 09:20:30;;;;;;;21.17;12.15;;;9.50;99.90;;;;;;5071575;28;20118;-71
2023/04/24 09:22:59;;;;;;;18.70;10.80;;;9.50;99.90;;;;;;5072901;28;20400;-70
2023/04/24 09:25:33;;;;;;;15.18;9.40;;;9.50;99.90;;;;;;5071465;28;20078;-70
2023/04/24 09:28:02;;;;;;;18.13;11.05;;;9.50;99.90;;;;;;5072722;28;20373;-69
2023/04/24 09:30:28;;;;;;;19.67;11.80;;;9.50;99.90;;;;;;5071336;28;20051;-69
2023/04/24 09:33:15;;;;;;;20.13;11.77;;;9.50;99.90;;;;;;5072819;28;20036;-70
2023/04/24 09:35:43;;;;;;;22.70;12.32;;;9.40;99.90;;;;;;5072626;28;20087;-70
2023/04/24 09:38:08;;;;;;;18.23;12.15;;;9.40;99.90;;;;;;5072456;28;20428;-70
2023/04/24 09:40:35;;;;;;;20.02;11.63;;;9.40;99.90;;;;;;5072318;28;20098;-70
2023/04/24 09:43:02;;;;;;;19.58;12.88;;;9.30;99.90;;;;;;5071122;28;20049;-70
2023/04/24 09:45:34;;;;;;;21.52;12.60;;;9.30;99.90;;;;;;5072394;28;20507;-69
2023/04/24 09:48:00;;;;;;;22.38;10.73;;;9.30;99.90;;;;;;5071414;28;20110;-69
2023/04/24 09:50:26;;;;;;;19.67;12.43;;;9.30;99.90;;;;;;5072297;28;20488;-70
2023/04/24 09:53:10;;;;;;;11.32;9.02;;;9.20;99.90;;;;;;5072360;28;20041;-70
2023/04/24 09:55:44;;;;;;;13.48;9.52;;;9.20;99.90;;;;;;5070872;28;20044;-69
2023/04/24 09:58:10;;;;;;;16.67;9.00;;;9.30;99.90;;;;;;5072230;28;20119;-70
2023/04/24 10:00:35;;;;;;;16.05;10.02;;;9.30;99.90;;;;;;5072251;28;20113;-69
2023/04/24 10:03:03;;;;;;;13.93;9.02;;;9.30;99.90;;;;;;5070766;28;20052;-70
2023/04/24 10:05:36;;;;;;;16.80;10.18;;;9.20;99.90;;;;;;5070670;28;20116;-69
2023/04/24 10:08:13;;;;;;;14.90;9.23;;;9.30;99.90;;;;;;5070687;28;20523;-69
2023/04/24 10:10:44;;;;;;;18.02;10.23;;;9.20;99.90;;;;;;5072152;28;20032;-69
2023/04/24 10:13:12;;;;;;;14.60;9.10;;;9.20;99.90;;;;;;5071844;28;20051;-69
2023/04/24 10:15:38;;;;;;;17.13;8.80;;;9.20;99.90;;;;;;5053817;28;20492;-70
2023/04/24 10:18:08;;;;;;;17.30;8.70;;;9.20;99.90;;;;;;5071535;28;20496;-69
2023/04/24 10:20:36;;;;;;;16.50;7.97;;;9.20;99.90;;;;;;5070513;28;20099;-69
2023/04/24 10:23:03;;;;;;;19.45;7.97;;;9.20;99.90;;;;;;5070446;28;20124;-69
2023/04/24 10:25:34;;;;;;;15.63;7.40;;;9.30;99.90;;;;;;5070949;28;20024;-70
2023/04/24 10:28:01;;;;;;;15.65;7.20;;;9.30;99.90;;;;;;5071807;28;20036;-70
2023/04/24 10:30:28;;;;;;;12.50;6.00;;;9.40;99.90;;;;;;5070441;28;20060;-68
2023/04/24 10:32:54;;;;;;;10.25;6.40;;;9.40;99.90;;;;;;5070682;28;20532;-68
2023/04/24 10:35:22;;;;;;;14.57;4.28;;;9.60;99.90;;;;;;5070106;28;20043;-68
2023/04/24 10:38:14;;;;;;;10.10;4.13;;;9.70;99.90;;;;;;5068782;28;20044;-67
2023/04/24 10:40:39;;;;;;;12.60;4.43;;;9.70;99.90;;;;;;5070315;28;20097;-68
2023/04/24 10:43:08;;;;;;;6.07;3.55;;;9.80;99.90;;;;;;5070236;28;20411;-68
2023/04/24 10:45:34;;;;;;;6.60;3.70;;;9.80;99.90;;;;;;5071022;28;20037;-68
2023/04/24 10:48:05;;;;;;;6.93;4.15;;;9.90;99.90;;;;;;5069818;28;20048;-68
2023/04/24 10:50:50;;;;;;;7.57;3.60;;;9.90;99.90;;;;;;5071543;28;20037;-68
2023/04/24 10:53:18;;;;;;;8.15;4.10;;;9.80;99.90;;;;;;5071750;28;20037;-68
2023/04/24 10:55:49;;;;;;;8.95;3.88;;;9.90;99.90;;;;;;5071731;28;20029;-68
2023/04/24 10:58:16;;;;;;;9.57;4.07;;;9.90;99.90;;;;;;5071860;28;20028;-68
2023/04/24 11:00:44;;;;;;;7.72;3.88;;;9.90;99.90;;;;;;5069988;28;20047;-68
2023/04/24 11:03:32;;;;;;;8.85;3.83;;;10.00;99.90;;;;;;5071219;28;20519;-68
2023/04/24 11:06:06;;;;;;;9.82;3.53;;;10.00;99.90;;;;;;5070425;28;20527;-68
2023/04/24 11:08:38;;;;;;;10.25;4.40;;;10.00;99.90;;;;;;5070498;28;20130;-68
2023/04/24 11:11:13;;;;;;;6.85;3.55;;;10.00;99.90;;;;;;5070306;28;20083;-68
2023/04/24 11:13:54;;;;;;;8.05;3.85;;;10.10;99.90;;;;;;5071145;28;20047;-68
2023/04/24 11:16:33;;;;;;;11.00;3.17;;;10.10;99.90;;;;;;5070466;28;20041;-68
2023/04/24 11:19:07;;;;;;;6.93;3.13;;;10.20;99.90;;;;;;5070512;28;20036;-68
2023/04/24 11:21:41;;;;;;;9.85;3.38;;;10.10;99.90;;;;;;5071650;28;20411;-68
2023/04/24 11:24:24;;;;;;;7.07;2.67;;;10.00;99.90;;;;;;5069567;28;20056;-68
2023/04/24 11:26:54;;;;;;;;;;;9.90;99.90;;;;;;5071592;28;20583;-68
2023/04/24 11:29:21;;;;;;;7.45;2.92;;;9.90;99.90;;;;;;5053887;28;19970;-68
2023/04/24 11:31:49;;;;;;;10.02;2.70;;;9.90;99.90;;;;;;5071501;28;20048;-68
2023/04/24 11:34:16;;;;;;;6.55;2.33;;;9.80;99.90;;;;;;5053808;28;20048;-68
2023/04/24 11:36:47;;;;;;;6.40;3.05;;;9.80;99.90;;;;;;5073194;28;20044;-68
2023/04/24 11:39:13;;;;;;;6.05;2.70;;;9.80;99.90;;;;;;5056394;28;20045;-68
2023/04/24 11:41:39;;;;;;;8.68;2.80;;;9.90;99.90;;;;;;5074488;28;20052;-68
2023/04/24 11:44:08;;;;;;;10.27;3.83;;;9.80;99.90;;;;;;5074723;28;20048;-68
2023/04/24 11:46:33;;;;;;;5.22;2.25;;;9.80;99.90;;;;;;5074513;28;20043;-68
2023/04/24 11:48:59;;;;;;;7.25;2.08;;;9.90;99.90;;;;;;5056896;28;20037;-68
2023/04/24 11:51:26;;;;;;;11.27;2.90;;;9.90;99.90;;;;;;5074051;28;20507;-68
2023/04/24 11:53:53;;;;;;;13.02;3.72;;;9.90;99.90;;;;;;5073877;28;20037;-68
2023/04/24 11:56:21;;;;;;;6.88;2.65;;;9.90;99.90;;;;;;5073850;28;20230;-68
2023/04/24 11:58:47;;;;;;;4.78;2.20;;;9.90;99.90;;;;;;5056024;28;20045;-68
2023/04/24 12:01:13;;;;;;;9.55;2.20;;;9.90;99.90;;;;;;5073868;28;20044;-68
2023/04/24 12:03:39;;;;;;;6.00;2.03;;;9.90;99.90;;;;;;5073872;28;20446;-68
2023/04/24 12:06:07;;;;;;;8.45;2.55;;;10.00;99.90;;;;;;5073846;28;20036;-68
2023/04/24 12:08:33;;;;;;;6.78;2.10;;;10.00;99.90;;;;;;5073937;28;20036;-68
2023/04/24 12:11:00;;;;;;;6.13;2.03;;;10.00;99.90;;;;;;5073974;28;20437;-68
2023/04/24 12:13:26;;;;;;;12.10;3.47;;;10.00;99.90;;;;;;5073680;28;20606;-68
2023/04/24 12:15:52;;;;;;;7.70;1.80;;;9.90;99.90;;;;;;5073594;28;20040;-67
2023/04/24 12:18:18;;;;;;;6.60;2.00;;;9.90;99.90;;;;;;5073778;28;20025;-68
2023/04/24 12:20:43;;;;;;;6.93;1.85;;;9.80;99.90;;;;;;5073695;28;20036;-68
2023/04/24 12:23:09;;;;;;;5.78;1.67;;;9.80;99.90;;;;;;5073556;28;20424;-68
2023/04/24 12:25:35;;;;;;;6.03;1.52;;;9.70;99.90;;;;;;5073923;28;20039;-68
2023/04/24 12:28:03;;;;;;;7.93;1.90;;;9.70;99.90;;;;;;5073929;28;20041;-68
2023/04/24 12:30:30;;;;;;;7.47;1.88;;;9.70;99.90;;;;;;5073823;28;20037;-67
2023/04/24 12:32:58;;;;;;;5.38;1.63;;;9.60;99.90;;;;;;5073879;28;20047;-67
2023/04/24 12:35:25;;;;;;;6.10;1.23;;;9.60;99.90;;;;;;5073759;28;20411;-67
2023/04/24 12:37:51;;;;;;;4.22;1.58;;;9.60;99.90;;;;;;5073481;28;20048;-68
2023/04/24 12:40:18;;;;;;;4.70;1.77;;;9.60;99.90;;;;;;5073610;28;20041;-67
2023/04/24 12:42:46;;;;;;;4.03;1.40;;;9.60;99.90;;;;;;5073389;28;20447;-68
2023/04/24 12:45:13;;;;;;;4.05;1.40;;;9.60;99.90;;;;;;5073316;28;20044;-68